Tain, United Kingdom
Current Conditions -  °F | °C
As of 9:50 AM on Tuesday 21 Oct 2014 (Local Time) from EGPE Reporting Station
Rain Showers Rain Showers  
Wind Chill: 38°   Ceiling: 3400
Heat Index: 46°   Visibility: 6mi
Dew Point: 41°   Wind: 26mph
Humidity: 81%   Direction: 270°W
Pressure: 29.21"   Gusts: 40mph
Location:  57.81°N, 4.06°W
Report Text: EGPE 210850Z 27023G35KT 9999 -SHRA FEW012 SCT020 BKN034 08/05 Q0989
Loading
Personal Weather Stations






























Interactive Weather Map New forecast layout! Learn more

10-Day Weather Forecast

Advertisements
Track Severe Weather on mobile